Time;durP1;ratioP1;P1;durP2;ratioP2;P2;SDS_P1;SDS_P2;PMS_P1;PMS_P2;Temp;Humidity;BMP_temperature;BMP_pressure;BME280_temperature;BME280_humidity;BME280_pressure;Samples;Min_cycle;Max_cycle;Signal;HPM_P1;HPM_P2
2022/06/01 00:01:48;;;;;;;12.77;11.52;;;11.20;99.90;;;;;;5041709;28;20037;-91
2022/06/01 00:04:15;;;;;;;11.40;10.25;;;11.10;99.90;;;;;;5044112;28;20080;-92
2022/06/01 00:06:40;;;;;;;11.18;10.07;;;11.10;99.90;;;;;;5045981;28;20060;-90
2022/06/01 00:09:06;;;;;;;11.73;10.52;;;11.10;99.90;;;;;;5044965;28;20025;-90
2022/06/01 00:11:32;;;;;;;11.27;10.07;;;11.00;99.90;;;;;;5044700;28;20096;-90
2022/06/01 00:13:58;;;;;;;10.95;9.85;;;11.10;99.90;;;;;;5044436;28;20040;-90
2022/06/01 00:16:27;;;;;;;10.57;9.48;;;11.10;99.90;;;;;;5044135;28;20033;-90
2022/06/01 00:18:52;;;;;;;10.82;9.73;;;11.10;99.90;;;;;;5044903;28;20075;-91
2022/06/01 00:21:18;;;;;;;11.60;10.40;;;11.10;99.90;;;;;;5044680;28;20033;-91
2022/06/01 00:23:44;;;;;;;11.27;10.07;;;11.10;99.90;;;;;;5054379;28;20037;-91
2022/06/01 00:26:10;;;;;;;12.38;10.93;;;11.20;99.90;;;;;;5056976;28;20037;-91
2022/06/01 00:28:37;;;;;;;11.00;9.90;;;11.20;99.90;;;;;;5054902;28;20089;-91
2022/06/01 00:31:03;;;;;;;11.52;10.40;;;11.20;99.90;;;;;;5060469;28;20037;-90
2022/06/01 00:33:30;;;;;;;13.10;11.77;;;11.30;99.90;;;;;;5051674;28;20060;-92
2022/06/01 00:35:56;;;;;;;11.35;10.25;;;11.30;99.90;;;;;;5048492;28;20032;-90
2022/06/01 00:38:22;;;;;;;13.73;12.25;;;11.30;99.90;;;;;;5044387;28;20041;-91
2022/06/01 00:40:48;;;;;;;12.15;10.95;;;11.30;99.90;;;;;;5046405;28;20040;-91
2022/06/01 00:43:22;;;;;;;12.60;11.20;;;11.30;99.90;;;;;;5049980;28;20029;-90
2022/06/01 00:45:48;;;;;;;13.13;11.82;;;11.30;99.90;;;;;;5044494;28;20025;-91
2022/06/01 00:48:14;;;;;;;13.85;12.10;;;11.30;99.90;;;;;;5040790;28;20056;-89
2022/06/01 00:50:42;;;;;;;13.20;11.88;;;11.30;99.90;;;;;;5041460;28;20036;-91
2022/06/01 00:53:10;;;;;;;13.40;12.00;;;11.30;99.90;;;;;;5045035;28;20060;-90
2022/06/01 00:55:41;;;;;;;14.45;12.95;;;11.30;99.90;;;;;;5042044;28;20091;-92
2022/06/01 00:58:18;;;;;;;15.48;13.90;;;11.30;99.90;;;;;;5042191;28;20048;-90
2022/06/01 01:00:48;;;;;;;15.23;13.73;;;11.30;99.90;;;;;;5044989;28;20052;-92
2022/06/01 01:03:15;;;;;;;15.20;13.70;;;11.30;99.90;;;;;;5039664;28;20044;-90
2022/06/01 01:05:47;;;;;;;15.73;14.13;;;11.20;99.90;;;;;;5054944;28;20119;-90
2022/06/01 01:08:13;;;;;;;14.75;13.25;;;11.30;99.90;;;;;;5057281;28;20032;-91
2022/06/01 01:10:39;;;;;;;14.55;13.05;;;11.30;99.90;;;;;;5057348;28;20036;-91
2022/06/01 01:13:09;;;;;;;13.68;12.25;;;11.30;99.90;;;;;;5057593;28;20036;-90
2022/06/01 01:15:43;;;;;;;15.30;13.80;;;11.30;99.90;;;;;;5057796;28;20036;-91
2022/06/01 01:18:17;;;;;;;17.92;16.13;;;11.30;99.90;;;;;;5057979;28;20029;-91
2022/06/01 01:21:30;;;;;;;16.30;14.63;;;11.30;99.90;;;;;;5057822;28;20044;-91
2022/06/01 01:24:13;;;;;;;16.47;14.80;;;11.20;99.90;;;;;;5012780;28;20087;-90
2022/06/01 01:26:42;;;;;;;18.23;16.45;;;11.20;99.90;;;;;;5051408;28;20058;-92
2022/06/01 01:29:10;;;;;;;16.73;14.98;;;11.10;99.90;;;;;;5058458;28;20067;-92
2022/06/01 01:31:38;;;;;;;18.83;16.80;;;11.10;99.90;;;;;;5062219;28;20032;-93
2022/06/01 01:34:05;;;;;;;18.83;16.85;;;11.00;99.90;;;;;;5059924;28;20045;-90
2022/06/01 01:36:36;;;;;;;17.00;15.40;;;11.00;99.90;;;;;;5043199;28;20044;-93
2022/06/01 01:39:12;;;;;;;16.73;15.00;;;11.00;99.90;;;;;;5062075;28;20043;-91
2022/06/01 01:41:48;;;;;;;15.95;14.13;;;11.00;99.90;;;;;;5068963;28;20039;-91
2022/06/01 01:44:29;;;;;;;16.85;15.15;;;11.00;99.90;;;;;;5059958;28;20174;-93
2022/06/01 01:46:56;;;;;;;14.13;12.73;;;11.00;99.90;;;;;;5062543;28;20104;-91
2022/06/01 01:49:35;;;;;;;14.02;12.60;;;11.00;99.90;;;;;;5071081;28;20044;-91
2022/06/01 01:52:05;;;;;;;13.73;10.63;;;11.00;99.90;;;;;;5058664;28;20029;-91
2022/06/01 01:54:52;;;;;;;12.43;11.13;;;11.00;99.90;;;;;;5058073;28;20029;-92
2022/06/01 01:57:43;;;;;;;11.90;10.30;;;11.00;99.90;;;;;;5058477;28;20050;-92
2022/06/01 02:00:17;;;;;;;13.00;10.30;;;11.00;99.90;;;;;;5058120;28;20094;-90
2022/06/01 02:03:08;;;;;;;10.82;9.73;;;10.90;99.90;;;;;;5057773;28;20036;-91
2022/06/01 02:06:04;;;;;;;9.02;8.13;;;11.00;99.90;;;;;;5058167;28;20060;-91
2022/06/01 02:08:38;;;;;;;10.95;8.45;;;11.00;99.90;;;;;;5058278;28;20074;-92
2022/06/01 02:14:38;;;;;;;10.38;9.18;;;11.00;99.90;;;;;;5077657;28;20391;-91
2022/06/01 02:17:13;;;;;;;10.68;9.00;;;11.00;99.90;;;;;;5062016;28;20028;-91
2022/06/01 02:19:47;;;;;;;11.52;9.40;;;11.00;99.90;;;;;;5065101;28;20048;-90
2022/06/01 02:22:13;;;;;;;11.63;9.68;;;11.00;99.90;;;;;;5066004;28;20025;-92
2022/06/01 02:24:40;;;;;;;10.50;9.23;;;10.90;99.90;;;;;;5061002;28;20100;-93
2022/06/01 02:27:08;;;;;;;10.48;9.38;;;10.90;99.90;;;;;;5060165;28;20028;-91
2022/06/01 02:29:48;;;;;;;8.75;7.72;;;10.80;99.90;;;;;;5060331;28;20044;-91
2022/06/01 02:32:15;;;;;;;8.52;7.07;;;10.80;99.90;;;;;;5059151;28;20036;-91
2022/06/01 02:34:43;;;;;;;8.70;7.57;;;10.80;99.90;;;;;;5058793;28;20025;-91
2022/06/01 02:37:09;;;;;;;7.55;6.75;;;10.80;99.90;;;;;;5058823;28;20535;-91
2022/06/01 02:39:39;;;;;;;8.05;6.55;;;10.80;99.90;;;;;;5066083;28;20048;-92
2022/06/01 02:42:25;;;;;;;7.80;6.80;;;10.80;99.90;;;;;;5076840;28;20028;-91
2022/06/01 02:44:57;;;;;;;7.40;6.30;;;10.70;99.90;;;;;;5076034;28;20041;-90
2022/06/01 02:47:24;;;;;;;8.25;6.95;;;10.80;99.90;;;;;;5075206;28;20012;-90
2022/06/01 02:49:50;;;;;;;7.65;6.70;;;10.80;99.90;;;;;;5075623;28;20028;-92
2022/06/01 02:52:16;;;;;;;9.13;8.02;;;10.80;99.90;;;;;;5075306;28;20059;-90
2022/06/01 02:54:42;;;;;;;9.20;7.75;;;10.80;99.90;;;;;;5075323;28;20036;-91
2022/06/01 02:57:08;;;;;;;8.65;7.75;;;10.80;99.90;;;;;;5075419;28;20029;-89
2022/06/01 02:59:34;;;;;;;8.32;7.22;;;10.80;99.90;;;;;;5074353;28;20044;-91
2022/06/01 03:02:00;;;;;;;7.88;7.03;;;10.80;99.90;;;;;;5079439;28;20040;-90
2022/06/01 03:04:29;;;;;;;8.63;7.72;;;10.80;99.90;;;;;;5077623;28;20061;-91
2022/06/01 03:06:55;;;;;;;8.55;7.25;;;10.70;99.90;;;;;;5079665;28;20036;-87
2022/06/01 03:09:21;;;;;;;7.43;6.63;;;10.70;99.90;;;;;;5082313;28;20068;-89
2022/06/01 03:11:47;;;;;;;6.72;6.03;;;10.70;99.90;;;;;;5077279;28;20032;-90
2022/06/01 03:14:12;;;;;;;7.80;6.63;;;10.70;99.90;;;;;;5075277;28;20494;-89
2022/06/01 03:16:38;;;;;;;7.50;6.60;;;10.70;99.90;;;;;;5074542;28;20096;-90
2022/06/01 03:19:05;;;;;;;7.72;6.55;;;10.70;99.90;;;;;;5073852;28;20413;-89
2022/06/01 03:21:31;;;;;;;7.85;6.65;;;10.70;99.90;;;;;;5073630;28;20020;-90
2022/06/01 03:23:56;;;;;;;8.10;6.75;;;10.60;99.90;;;;;;5067439;28;20052;-90
2022/06/01 03:26:23;;;;;;;7.65;6.63;;;10.60;99.90;;;;;;5062936;28;20021;-90
2022/06/01 03:28:48;;;;;;;7.38;6.32;;;10.60;99.90;;;;;;5066901;28;20036;-88
2022/06/01 03:31:14;;;;;;;6.95;6.03;;;10.60;99.90;;;;;;5062080;28;20040;-92
2022/06/01 03:33:41;;;;;;;8.52;6.80;;;10.50;99.90;;;;;;5060903;28;20155;-91
2022/06/01 03:36:07;;;;;;;8.13;6.97;;;10.50;99.90;;;;;;5061135;28;20115;-90
2022/06/01 03:38:33;;;;;;;8.50;6.95;;;10.40;99.90;;;;;;5060829;28;20102;-91
2022/06/01 03:40:59;;;;;;;7.75;6.95;;;10.40;99.90;;;;;;5062268;28;20041;-91
2022/06/01 03:43:24;;;;;;;7.90;7.10;;;10.40;99.90;;;;;;5070898;28;20036;-90
2022/06/01 03:45:56;;;;;;;9.00;8.07;;;10.40;99.90;;;;;;5062260;28;20033;-91
2022/06/01 03:48:23;;;;;;;8.55;7.55;;;10.40;99.90;;;;;;5059890;28;20127;-91
2022/06/01 03:50:49;;;;;;;9.77;7.85;;;10.40;99.90;;;;;;5059464;28;20492;-90
2022/06/01 03:53:15;;;;;;;8.82;7.53;;;10.40;99.90;;;;;;5060033;28;20047;-91
2022/06/01 03:55:42;;;;;;;7.75;6.93;;;10.40;99.90;;;;;;5060336;28;20112;-90
2022/06/01 03:58:15;;;;;;;7.32;6.20;;;10.40;99.90;;;;;;5060175;28;20024;-91
2022/06/01 04:00:41;;;;;;;6.63;5.40;;;10.40;99.90;;;;;;5060781;28;20051;-90
2022/06/01 04:03:07;;;;;;;7.32;6.53;;;10.40;99.90;;;;;;5060385;28;20093;-90
2022/06/01 04:05:33;;;;;;;7.80;6.82;;;10.40;99.90;;;;;;5060412;28;20066;-90
2022/06/01 04:07:58;;;;;;;8.48;6.30;;;10.40;99.90;;;;;;5060249;28;20028;-91
2022/06/01 04:10:24;;;;;;;7.72;6.22;;;10.40;99.90;;;;;;5060791;28;20040;-91
2022/06/01 04:12:50;;;;;;;8.07;6.93;;;10.30;99.90;;;;;;5060026;28;20025;-91
2022/06/01 04:15:17;;;;;;;7.35;6.30;;;10.30;99.90;;;;;;5059880;28;20393;-90
2022/06/01 04:17:43;;;;;;;8.57;7.45;;;10.30;99.90;;;;;;5061087;28;20077;-91
2022/06/01 04:20:10;;;;;;;8.10;6.95;;;10.30;99.90;;;;;;5064557;28;20111;-91
2022/06/01 04:22:42;;;;;;;8.38;7.32;;;10.30;99.90;;;;;;5065560;28;20060;-91
2022/06/01 04:25:11;;;;;;;9.25;7.47;;;10.40;99.90;;;;;;5061099;28;20025;-91
2022/06/01 04:27:38;;;;;;;10.02;8.07;;;10.40;99.90;;;;;;5060674;28;20048;-91
2022/06/01 04:30:08;;;;;;;12.35;10.10;;;10.40;99.90;;;;;;5061063;28;20143;-90
2022/06/01 04:32:34;;;;;;;14.32;12.82;;;10.50;99.90;;;;;;5060945;28;20044;-91
2022/06/01 04:35:01;;;;;;;13.82;12.32;;;10.50;99.90;;;;;;5060943;28;20082;-91
2022/06/01 04:37:27;;;;;;;14.73;13.02;;;10.50;99.90;;;;;;5060321;28;20033;-92
2022/06/01 04:39:53;;;;;;;17.40;15.60;;;10.50;99.90;;;;;;5059778;28;20060;-89
2022/06/01 04:42:19;;;;;;;17.70;15.82;;;10.60;99.90;;;;;;5060285;28;20032;-90
2022/06/01 04:44:46;;;;;;;18.67;16.73;;;10.60;99.90;;;;;;5065770;28;20036;-89
2022/06/01 04:47:11;;;;;;;19.23;17.13;;;10.60;99.90;;;;;;5077174;28;20071;-88
2022/06/01 04:49:37;;;;;;;17.92;16.00;;;10.70;99.90;;;;;;5079794;28;20012;-91
2022/06/01 04:52:04;;;;;;;21.10;18.45;;;10.80;99.90;;;;;;5081156;28;20036;-89
2022/06/01 04:54:30;;;;;;;24.63;20.13;;;10.90;99.90;;;;;;5082265;28;20020;-89
2022/06/01 04:56:56;;;;;;;23.30;20.83;;;11.00;99.90;;;;;;5082540;28;20021;-92
2022/06/01 04:59:21;;;;;;;21.08;18.88;;;11.10;99.90;;;;;;5083309;28;20040;-92
2022/06/01 05:01:47;;;;;;;25.30;21.70;;;11.10;99.90;;;;;;5082886;28;20017;-92
2022/06/01 05:04:14;;;;;;;23.63;21.08;;;11.10;99.90;;;;;;5082418;28;20104;-91
2022/06/01 05:06:39;;;;;;;21.42;19.13;;;11.20;99.90;;;;;;5081383;28;20047;-92
2022/06/01 05:09:06;;;;;;;21.38;19.08;;;11.30;99.90;;;;;;5081725;28;20013;-91
2022/06/01 05:11:32;;;;;;;25.77;22.13;;;11.30;99.90;;;;;;5065740;28;20035;-90
2022/06/01 05:13:59;;;;;;;28.35;24.83;;;11.30;99.90;;;;;;5079974;28;20045;-90
2022/06/01 05:16:28;;;;;;;28.73;25.73;;;11.10;99.90;;;;;;5072338;28;20032;-89
2022/06/01 05:18:53;;;;;;;24.63;22.02;;;11.10;99.90;;;;;;5066859;28;20048;-90
2022/06/01 05:21:19;;;;;;;24.50;21.27;;;11.00;99.90;;;;;;5071694;28;20035;-91
2022/06/01 05:23:46;;;;;;;23.90;21.35;;;10.90;99.90;;;;;;5071346;28;20119;-89
2022/06/01 05:26:12;;;;;;;25.48;20.98;;;11.00;99.90;;;;;;5061308;28;20032;-89
2022/06/01 05:28:37;;;;;;;21.50;19.20;;;11.00;99.90;;;;;;5062669;28;20039;-91
2022/06/01 05:31:07;;;;;;;22.40;19.92;;;11.00;99.90;;;;;;5065177;28;20040;-91
2022/06/01 05:33:33;;;;;;;20.23;17.55;;;11.10;99.90;;;;;;5059394;28;20048;-90
2022/06/01 05:35:59;;;;;;;21.13;18.88;;;11.10;99.90;;;;;;5061834;28;20028;-89
2022/06/01 05:38:25;;;;;;;21.73;19.42;;;11.20;99.90;;;;;;5060551;28;20028;-92
2022/06/01 05:40:51;;;;;;;20.73;18.40;;;11.20;99.90;;;;;;5071382;28;20041;-91
2022/06/01 05:43:17;;;;;;;25.92;21.45;;;11.30;99.90;;;;;;5065108;28;20036;-91
2022/06/01 05:45:43;;;;;;;24.55;21.85;;;11.30;99.90;;;;;;5063120;28;20036;-86
2022/06/01 05:48:10;;;;;;;19.85;17.20;;;11.30;99.90;;;;;;5057444;28;20115;-86
2022/06/01 05:50:37;;;;;;;21.92;18.33;;;11.30;99.90;;;;;;5053362;28;20214;-88
2022/06/01 05:53:03;;;;;;;20.90;18.67;;;11.30;99.90;;;;;;5071909;28;20025;-86
2022/06/01 05:55:28;;;;;;;19.23;16.75;;;11.40;99.90;;;;;;5055862;28;20036;-87
2022/06/01 05:57:54;;;;;;;17.52;15.73;;;11.40;99.90;;;;;;5056705;28;20056;-88
2022/06/01 06:00:20;;;;;;;18.42;15.23;;;11.50;99.90;;;;;;5056713;28;20039;-87
2022/06/01 06:02:46;;;;;;;18.83;16.25;;;11.50;99.90;;;;;;5056844;28;20482;-88
2022/06/01 06:07:58;;;;;;;15.05;13.43;;;11.60;99.90;;;;;;5075233;28;20050;-88
2022/06/01 06:10:24;;;;;;;16.73;14.88;;;11.60;99.90;;;;;;5074603;28;20044;-87
2022/06/01 06:12:51;;;;;;;16.83;14.80;;;11.70;99.90;;;;;;5057192;28;20049;-86
2022/06/01 06:15:17;;;;;;;16.63;14.43;;;11.70;99.90;;;;;;5074606;28;20421;-87
2022/06/01 06:17:42;;;;;;;18.58;15.35;;;11.70;99.90;;;;;;5056888;28;20029;-87
2022/06/01 06:20:09;;;;;;;18.60;15.32;;;11.70;99.90;;;;;;5057005;28;20078;-86
2022/06/01 06:22:35;;;;;;;18.25;16.35;;;11.80;99.90;;;;;;5057237;28;20416;-90
2022/06/01 06:25:01;;;;;;;21.55;18.13;;;11.80;99.90;;;;;;5057272;28;20024;-86
2022/06/01 06:27:29;;;;;;;18.85;16.85;;;11.80;99.90;;;;;;5074611;28;20470;-87
2022/06/01 06:29:55;;;;;;;19.63;17.55;;;11.90;99.90;;;;;;5074867;28;20109;-87
2022/06/01 06:32:21;;;;;;;20.00;16.98;;;11.90;99.90;;;;;;5056068;28;20036;-86
2022/06/01 06:34:47;;;;;;;17.40;14.63;;;11.90;99.90;;;;;;5056452;28;20040;-87
2022/06/01 06:37:13;;;;;;;16.38;14.32;;;12.00;99.90;;;;;;5056476;28;20036;-86
2022/06/01 06:39:40;;;;;;;15.23;13.63;;;12.10;99.90;;;;;;5056164;28;20048;-87
2022/06/01 06:42:06;;;;;;;15.20;13.00;;;12.20;99.90;;;;;;5055559;28;20024;-87
2022/06/01 06:44:33;;;;;;;14.57;13.07;;;12.20;99.90;;;;;;5055611;28;20056;-87
2022/06/01 06:46:59;;;;;;;14.85;13.32;;;12.30;99.90;;;;;;5073648;28;20016;-87
2022/06/01 06:49:25;;;;;;;16.85;15.05;;;12.40;99.90;;;;;;5056052;28;20044;-87
2022/06/01 06:51:51;;;;;;;19.92;17.90;;;12.40;99.90;;;;;;5074436;28;20025;-87
2022/06/01 06:54:18;;;;;;;15.90;13.82;;;12.50;99.90;;;;;;5055675;28;20094;-87
2022/06/01 06:56:44;;;;;;;17.92;15.65;;;12.50;99.90;;;;;;5055658;28;20039;-87
2022/06/01 06:59:12;;;;;;;16.38;14.60;;;12.60;99.90;;;;;;5055196;28;20124;-87
2022/06/01 07:01:38;;;;;;;13.60;12.25;;;12.60;99.90;;;;;;5055440;28;20372;-87
2022/06/01 07:04:03;;;;;;;11.18;9.90;;;12.70;99.90;;;;;;5055338;28;20040;-87
2022/06/01 07:06:29;;;;;;;10.82;9.70;;;12.90;99.90;;;;;;5055705;28;20033;-88
2022/06/01 07:08:55;;;;;;;10.57;9.40;;;13.00;99.90;;;;;;5056051;28;20036;-88
2022/06/01 07:11:24;;;;;;;13.40;10.93;;;13.10;99.90;;;;;;5055697;28;20115;-87
2022/06/01 07:13:50;;;;;;;12.95;11.57;;;13.20;99.90;;;;;;5055702;28;20052;-87
2022/06/01 07:16:20;;;;;;;15.98;13.07;;;13.30;99.90;;;;;;5055730;28;20098;-87
2022/06/01 07:18:48;;;;;;;12.77;11.48;;;13.40;99.90;;;;;;5055523;28;20032;-88
2022/06/01 07:21:16;;;;;;;13.07;11.35;;;13.40;99.90;;;;;;5055609;28;20040;-86
2022/06/01 07:23:42;;;;;;;13.63;10.88;;;13.50;99.90;;;;;;5074008;28;20029;-87
2022/06/01 07:26:15;;;;;;;14.82;10.40;;;13.50;99.90;;;;;;5073731;28;20135;-87
2022/06/01 07:28:40;;;;;;;11.43;10.23;;;13.60;99.90;;;;;;5055782;28;20025;-88
2022/06/01 07:31:07;;;;;;;9.18;8.18;;;13.60;99.90;;;;;;5073294;28;20397;-85
2022/06/01 07:33:33;;;;;;;10.52;9.40;;;13.70;99.90;;;;;;5055759;28;20039;-87
2022/06/01 07:36:03;;;;;;;9.32;8.32;;;13.80;99.90;;;;;;5055308;28;20140;-86
2022/06/01 07:44:06;;;;;;;7.55;6.35;;;13.90;99.90;;;;;;5074071;28;20075;-86
2022/06/01 07:46:34;;;;;;;8.00;6.18;;;14.00;99.90;;;;;;5056277;28;20029;-86
2022/06/01 07:49:00;;;;;;;6.40;5.10;;;14.10;99.90;;;;;;5077086;28;20025;-88
2022/06/01 07:51:25;;;;;;;5.80;4.50;;;14.20;99.90;;;;;;5058792;28;20033;-86
2022/06/01 07:53:53;;;;;;;7.47;4.93;;;14.20;99.90;;;;;;5076698;28;20040;-89
2022/06/01 07:56:18;;;;;;;7.70;5.18;;;14.30;99.90;;;;;;5058769;28;20036;-88
2022/06/01 07:58:44;;;;;;;6.55;5.05;;;14.30;99.90;;;;;;5058812;28;20039;-88
2022/06/01 08:01:10;;;;;;;8.27;6.43;;;14.30;99.90;;;;;;5059367;28;20127;-87
2022/06/01 08:03:36;;;;;;;9.00;6.80;;;14.30;99.90;;;;;;5076682;28;20044;-87
2022/06/01 08:06:02;;;;;;;8.38;6.00;;;14.40;99.90;;;;;;5059197;28;20047;-89
2022/06/01 08:08:28;;;;;;;6.50;5.13;;;14.50;99.90;;;;;;5058902;28;20029;-88
2022/06/01 08:10:53;;;;;;;7.13;5.43;;;14.50;99.90;;;;;;5059357;28;20083;-88
2022/06/01 08:13:19;;;;;;;7.25;5.85;;;14.50;99.90;;;;;;5059158;28;20037;-88
2022/06/01 08:15:47;;;;;;;5.32;4.57;;;14.60;99.90;;;;;;5058432;28;20115;-87
2022/06/01 08:18:20;;;;;;;4.80;3.90;;;14.70;99.90;;;;;;5058641;28;20032;-88
2022/06/01 08:20:47;;;;;;;7.20;5.57;;;14.80;99.90;;;;;;5076807;28;20076;-83
2022/06/01 08:23:13;;;;;;;6.68;5.85;;;14.80;99.90;;;;;;5062450;28;20474;-86
2022/06/01 08:25:40;;;;;;;6.13;4.55;;;14.70;99.90;;;;;;5059333;28;20063;-88
2022/06/01 08:28:07;;;;;;;5.05;4.03;;;14.70;99.90;;;;;;5060103;28;20024;-86
2022/06/01 08:30:34;;;;;;;6.47;4.90;;;14.80;99.90;;;;;;5059924;28;20097;-88
2022/06/01 08:33:00;;;;;;;9.75;5.22;;;15.00;99.90;;;;;;5057549;28;20035;-89
2022/06/01 08:35:33;;;;;;;6.22;4.85;;;15.10;99.90;;;;;;5075736;28;20509;-89
2022/06/01 08:38:00;;;;;;;5.60;4.50;;;15.10;99.90;;;;;;5058943;28;20122;-89
2022/06/01 08:40:51;;;;;;;4.03;3.33;;;15.20;99.90;;;;;;5057812;28;20063;-89
2022/06/01 08:43:21;;;;;;;5.70;3.65;;;15.40;99.90;;;;;;5053519;28;20505;-90
2022/06/01 08:45:53;;;;;;;4.70;3.38;;;15.60;99.90;;;;;;5058769;28;20154;-89
2022/06/01 08:48:28;;;;;;;4.60;3.05;;;15.60;99.90;;;;;;5052919;28;20041;-89
2022/06/01 08:50:54;;;;;;;5.82;3.50;;;15.70;99.90;;;;;;5056950;28;20029;-84
2022/06/01 08:53:23;;;;;;;4.75;4.00;;;15.70;99.90;;;;;;5071138;28;20535;-85
2022/06/01 08:55:57;;;;;;;5.35;3.70;;;15.80;99.90;;;;;;5053117;28;20025;-86
2022/06/01 08:59:03;;;;;;;4.63;3.70;;;15.70;99.90;;;;;;5036316;28;20029;-86
2022/06/01 09:02:06;;;;;;;3.78;3.20;;;15.80;99.90;;;;;;5042506;28;20040;-85
2022/06/01 09:04:53;;;;;;;4.55;3.00;;;16.00;99.90;;;;;;4953813;28;20054;-86
2022/06/01 09:07:30;;;;;;;4.50;3.00;;;16.10;99.90;;;;;;5039839;28;20131;-86
2022/06/01 09:09:58;;;;;;;3.97;2.65;;;16.30;99.90;;;;;;5052612;28;20032;-86
2022/06/01 09:12:24;;;;;;;3.53;2.75;;;16.30;99.90;;;;;;5052082;28;20494;-85
2022/06/01 09:14:56;;;;;;;4.55;3.17;;;16.30;99.90;;;;;;5052846;28;20082;-86
2022/06/01 09:17:22;;;;;;;3.55;2.97;;;16.40;99.90;;;;;;5052670;28;20039;-87
2022/06/01 09:22:38;;;;;;;4.80;3.50;;;16.40;99.90;;;;;;5056245;28;20035;-85
2022/06/01 09:25:08;;;;;;;4.90;3.03;;;16.40;99.90;;;;;;5052410;28;20122;-86
2022/06/01 09:27:40;;;;;;;6.10;3.83;;;16.40;99.90;;;;;;5051786;28;20492;-86
2022/06/01 09:30:26;;;;;;;4.72;3.00;;;16.40;99.90;;;;;;5052319;28;20036;-86
2022/06/01 09:33:02;;;;;;;13.82;3.97;;;16.50;99.90;;;;;;5052024;28;20044;-86
2022/06/01 09:35:33;;;;;;;10.07;3.60;;;17.10;99.90;;;;;;5052353;28;20127;-86
2022/06/01 09:38:03;;;;;;;4.85;2.70;;;18.30;99.90;;;;;;5051612;28;20430;-88
2022/06/01 09:40:33;;;;;;;5.30;3.28;;;19.40;99.90;;;;;;5052475;28;20048;-87
2022/06/01 09:43:00;;;;;;;3.80;3.28;;;19.90;99.90;;;;;;5051948;28;20033;-87
2022/06/01 09:45:53;;;;;;;3.42;2.80;;;19.60;99.90;;;;;;5070147;28;20060;-86
2022/06/01 09:48:37;;;;;;;4.25;3.00;;;18.80;99.90;;;;;;5031684;28;20107;-86
2022/06/01 09:51:21;;;;;;;5.40;2.90;;;18.10;99.90;;;;;;5049655;28;20418;-86
2022/06/01 09:53:53;;;;;;;3.72;2.97;;;17.50;99.90;;;;;;5031046;28;20491;-84
2022/06/01 09:56:31;;;;;;;4.22;2.95;;;16.90;99.90;;;;;;5030982;28;20036;-85
2022/06/01 10:07:24;;;;;;;3.65;2.78;;;15.40;99.90;;;;;;5069208;28;20083;-85
2022/06/01 10:10:04;;;;;;;3.15;2.78;;;16.70;99.90;;;;;;5050649;28;20507;-85
2022/06/01 10:12:44;;;;;;;3.20;2.38;;;17.90;99.90;;;;;;5036779;28;20170;-86
2022/06/01 10:15:19;;;;;;;2.05;1.63;;;18.60;99.90;;;;;;5055387;28;20032;-85
2022/06/01 10:17:51;;;;;;;1.90;1.45;;;18.90;99.90;;;;;;5070172;28;20406;-86
2022/06/01 10:20:38;;;;;;;2.17;1.80;;;19.40;99.90;;;;;;5052940;28;20033;-85
2022/06/01 10:23:10;;;;;;;3.05;2.42;;;20.40;99.90;;;;;;5050819;28;20390;-87
2022/06/01 10:25:45;;;;;;;3.00;1.83;;;21.10;99.90;;;;;;5050812;28;20505;-84
2022/06/01 10:28:40;;;;;;;2.13;1.40;;;21.70;99.90;;;;;;5050094;28;20037;-85
2022/06/01 10:31:31;;;;;;;2.88;2.05;;;21.30;99.90;;;;;;5044055;28;20024;-87
2022/06/01 10:34:14;;;;;;;3.25;1.80;;;20.30;99.90;;;;;;5053996;28;20128;-88
2022/06/01 10:36:51;;;;;;;1.90;1.65;;;20.40;99.90;;;;;;5067417;28;20178;-91
2022/06/01 10:39:28;;;;;;;2.05;1.70;;;20.60;99.90;;;;;;5048997;28;20560;-89
2022/06/01 10:42:16;;;;;;;3.00;1.80;;;20.30;99.90;;;;;;5051028;28;20059;-89
2022/06/01 10:44:51;;;;;;;2.00;1.63;;;19.60;99.90;;;;;;5051831;28;20094;-90
2022/06/01 10:47:34;;;;;;;5.30;2.60;;;19.00;99.90;;;;;;5051736;28;20036;-88
2022/06/01 10:50:17;;;;;;;4.60;2.95;;;18.30;99.90;;;;;;5049019;28;20029;-88
2022/06/01 10:52:59;;;;;;;4.38;2.80;;;17.60;99.90;;;;;;5050252;28;20455;-91
2022/06/01 10:55:29;;;;;;;4.47;2.75;;;17.10;99.90;;;;;;5051925;28;20044;-88
2022/06/01 10:57:57;;;;;;;4.63;2.95;;;16.80;99.90;;;;;;5051237;28;20036;-91
2022/06/01 11:00:35;;;;;;;5.47;3.42;;;16.50;99.90;;;;;;5053896;28;20032;-90
2022/06/01 11:03:16;;;;;;;3.47;2.50;;;16.20;99.90;;;;;;5053769;28;20688;-91
2022/06/01 11:06:25;;;;;;;3.58;2.28;;;15.90;99.90;;;;;;5057009;28;20037;-90
2022/06/01 11:09:02;;;;;;;3.53;1.98;;;15.70;99.90;;;;;;5045309;28;20028;-90
2022/06/01 11:11:35;;;;;;;2.80;1.88;;;15.80;99.90;;;;;;5055399;28;20060;-92
2022/06/01 11:14:24;;;;;;;1.50;1.20;;;16.40;99.90;;;;;;5056220;28;20024;-92
2022/06/01 11:16:53;;;;;;;1.50;0.90;;;17.30;99.90;;;;;;5039160;28;20052;-92
2022/06/01 11:19:54;;;;;;;1.42;0.73;;;17.30;99.90;;;;;;5053113;28;20479;-92
2022/06/01 11:22:37;;;;;;;1.98;0.90;;;17.00;99.90;;;;;;5047295;28;20051;-88
2022/06/01 11:25:24;;;;;;;1.58;0.90;;;16.70;99.90;;;;;;5057237;28;20029;-90
2022/06/01 11:28:02;;;;;;;1.85;0.90;;;16.30;99.90;;;;;;5057144;28;20082;-91
2022/06/01 11:30:53;;;;;;;2.08;1.42;;;15.90;99.90;;;;;;5057207;28;20041;-90
2022/06/01 11:33:35;;;;;;;2.38;1.50;;;15.70;99.90;;;;;;5056802;28;20561;-91
2022/06/01 11:36:38;;;;;;;4.60;1.90;;;15.50;99.90;;;;;;5056954;28;20044;-90
2022/06/01 11:39:35;;;;;;;2.83;1.88;;;16.40;99.90;;;;;;5056752;28;20045;-91
2022/06/01 11:42:13;;;;;;;3.28;2.53;;;17.10;99.90;;;;;;5057789;28;20037;-92
2022/06/01 11:44:54;;;;;;;4.47;2.92;;;17.00;99.90;;;;;;5056674;28;20036;-90
2022/06/01 11:47:22;;;;;;;5.25;2.90;;;16.90;99.90;;;;;;5056779;28;20029;-90
2022/06/01 11:50:18;;;;;;;3.30;2.88;;;17.40;99.90;;;;;;5057383;28;20045;-90
2022/06/01 11:52:57;;;;;;;4.82;3.00;;;18.50;99.90;;;;;;5052577;28;20132;-92
2022/06/01 11:55:35;;;;;;;4.38;3.63;;;19.60;99.90;;;;;;5036645;28;20033;-88
2022/06/01 11:58:36;;;;;;;3.95;3.00;;;19.80;99.90;;;;;;5053678;28;20158;-90
2022/06/01 12:01:31;;;;;;;3.67;2.65;;;19.30;99.90;;;;;;5073936;28;20045;-90
2022/06/01 12:04:10;;;;;;;3.05;2.30;;;18.60;99.90;;;;;;5056823;28;20044;-91
2022/06/01 12:06:48;;;;;;;3.17;2.40;;;18.10;99.90;;;;;;5055984;28;20409;-92
2022/06/01 12:09:29;;;;;;;4.25;3.17;;;18.10;99.90;;;;;;5056542;28;20503;-91
2022/06/01 12:11:55;;;;;;;3.80;3.00;;;18.30;99.90;;;;;;5057042;28;20036;-89
2022/06/01 12:14:29;;;;;;;3.63;2.63;;;18.50;99.90;;;;;;5055584;28;20100;-91
2022/06/01 12:17:17;;;;;;;3.33;2.40;;;19.00;99.90;;;;;;5055672;28;20127;-90
2022/06/01 12:19:49;;;;;;;3.53;2.30;;;19.20;99.90;;;;;;5055272;28;20565;-92
2022/06/01 12:28:53;;;;;;;1.98;0.90;;;19.80;99.90;;;;;;5073813;28;20075;-91
2022/06/01 12:31:36;;;;;;;0.80;0.60;;;20.30;99.90;;;;;;5039206;28;20044;-90
2022/06/01 12:34:09;;;;;;;0.80;0.68;;;20.80;99.90;;;;;;5054330;28;20051;-91
2022/06/01 12:36:41;;;;;;;1.58;0.50;;;21.10;99.90;;;;;;5054691;28;20721;-92
2022/06/01 12:39:36;;;;;;;0.88;0.52;;;21.60;99.90;;;;;;5056080;28;20036;-89
2022/06/01 12:42:09;;;;;;;1.40;0.50;;;21.90;99.90;;;;;;5056625;28;20036;-90
2022/06/01 12:44:35;;;;;;;0.65;0.30;;;21.90;99.90;;;;;;5055561;28;20123;-89
2022/06/01 12:47:02;;;;;;;0.70;0.38;;;21.80;99.90;;;;;;5054105;28;20045;-90
2022/06/01 12:49:37;;;;;;;0.75;0.30;;;21.70;99.90;;;;;;5054210;28;20072;-92
2022/06/01 12:52:11;;;;;;;0.85;0.20;;;21.80;99.90;;;;;;5057055;28;20410;-90
2022/06/01 12:54:40;;;;;;;1.50;0.30;;;22.20;99.90;;;;;;5056445;28;20036;-90
2022/06/01 12:57:12;;;;;;;1.40;0.45;;;22.20;99.90;;;;;;5055425;28;20543;-90
2022/06/01 12:59:40;;;;;;;1.02;0.60;;;22.20;99.90;;;;;;5055454;28;20117;-88
2022/06/01 13:02:11;;;;;;;2.58;0.60;;;22.20;99.90;;;;;;5055100;28;20453;-90
2022/06/01 13:04:39;;;;;;;0.88;0.50;;;21.90;98.80;;;;;;5053493;28;20064;-92
2022/06/01 13:07:08;;;;;;;0.40;0.30;;;21.40;99.00;;;;;;5053780;28;20072;-90
2022/06/01 13:09:35;;;;;;;0.50;0.30;;;21.10;99.60;;;;;;5053238;28;20494;-91
2022/06/01 13:12:05;;;;;;;1.88;0.30;;;21.20;99.80;;;;;;5052442;28;20723;-88
2022/06/01 13:14:34;;;;;;;0.70;0.30;;;21.50;99.70;;;;;;5052769;28;20046;-88
2022/06/01 13:17:20;;;;;;;0.80;0.30;;;21.80;99.30;;;;;;5050919;28;20032;-86
2022/06/01 13:20:06;;;;;;;1.75;0.50;;;22.10;99.70;;;;;;5052809;28;20048;-90
2022/06/01 13:22:38;;;;;;;1.55;0.70;;;22.50;99.30;;;;;;5045412;28;20024;-87
2022/06/01 13:25:13;;;;;;;1.17;0.50;;;22.70;98.40;;;;;;5071888;28;20033;-89
2022/06/01 13:27:40;;;;;;;1.50;0.75;;;22.40;98.10;;;;;;5071859;28;20111;-88
2022/06/01 13:30:07;;;;;;;1.58;0.70;;;22.00;98.50;;;;;;5072344;28;20064;-87